ブリスベン空港の過去48時間の天気

ブリスベン空港 (Brisbane Airport M. O)

現在時刻: 9/26 06:13 AEST (9/25 20:13 UTC) 以下の時間は現地時間です。

過去48時間のMETAR気象情報
時間 風向 風速(m/s) 視程 気温(℃) 湿度(%) 気圧(hPa) 天気現象
26 06:00 静穏 0 10km以上 15 94 1017 地霧
26 05:30 南西 3 10km以上 14 94 1016 地霧
26 05:00 南南西 2 10km以上 15 88 1016
26 04:30 3 10km以上 16 88 1016
26 04:00 南南西 3 10km以上 16 94 1016
26 03:30 南南西 3 10km以上 16 94 1016
26 03:00 南南西 3 10km以上 16 94 1016
26 02:30 南南西 3 10km以上 15 94 1016
26 02:00 西南西 2 10km以上 16 88 1016
26 01:30 西南西 2 10km以上 16 94 1016
26 01:00 南西 2 10km以上 16 94 1016
26 00:30 静穏 0 10km以上 16 94 1016
26 00:00 西南西 2 10km以上 17 88 1017
25 23:30 西 2 10km以上 17 94 1017
25 23:00 北東 1 10km以上 17 88 1017
25 22:30 静穏 0 10km以上 18 88 1017
25 22:00 東北東 2 10km以上 18 88 1017
25 21:30 東北東 2 10km以上 18 88 1017
25 21:00 東北東 2 10km以上 19 83 1017
25 20:30 北東 3 10km以上 18 88 1016
25 20:00 東北東 3 10km以上 19 78 1016
25 19:30 東北東 3 10km以上 19 78 1016
25 19:00 東北東 3 10km以上 20 78 1015
25 18:30 東北東 4 10km以上 20 73 1015
25 18:00 東北東 4 10km以上 21 64 1014
25 17:30 東北東 4 10km以上 21 64 1014
25 17:00 東北東 4 10km以上 22 60 1014
25 16:30 東北東 5 10km以上 22 60 1014
25 16:00 4 10km以上 23 53 1013
25 15:30 5 10km以上 23 53 1013
25 15:00 東北東 6 10km以上 23 57 1013
25 14:30 東北東 7 10km以上 24 61 1013
25 14:00 北東 7 10km以上 24 50 1013
25 13:30 北東 6 10km以上 24 44 1014
25 13:00 北東 5 10km以上 24 44 1014
25 12:30 北東 6 10km以上 24 44 1014
25 12:00 北東 4 10km以上 24 41 1015
25 11:30 6 10km以上 24 38 1015
25 11:00 4 10km以上 24 38 1015
25 10:30 南南西 3 10km以上 24 36 1016
25 10:00 南西 4 10km以上 24 41 1016
25 09:30 南西 5 10km以上 23 44 1016
25 09:00 南西 5 10km以上 22 46 1016
25 08:30 南西 5 10km以上 22 46 1016
25 08:00 南西 5 10km以上 21 49 1015
25 07:30 南西 4 10km以上 19 60 1015
25 07:00 南南西 3 10km以上 18 68 1015
25 06:30 西南西 3 10km以上 15 82 1015
25 06:00 西南西 3 10km以上 14 77 1014
25 05:30 南西 2 10km以上 14 77 1014
25 05:00 南西 3 10km以上 14 77 1014
25 04:30 西南西 4 10km以上 14 77 1013
25 04:00 3 10km以上 16 68 1013
25 03:30 南南西 2 10km以上 16 72 1013
25 03:00 西 6 10km以上 16 72 1013
25 02:30 西南西 5 10km以上 15 77 1013
25 02:00 南西 4 10km以上 14 77 1013
25 01:30 西南西 3 10km以上 16 72 1013
25 01:00 西 4 10km以上 16 72 1013
25 00:30 西南西 5 10km以上 18 64 1013
25 00:00 西 2 10km以上 18 64 1013
24 23:30 西 4 10km以上 18 64 1013
24 23:00 西南西 4 10km以上 18 64 1013
24 22:30 西南西 3 10km以上 18 64 1013
24 22:00 西南西 3 10km以上 19 60 1013
24 21:30 西 3 10km以上 20 60 1012
24 21:00 西北西 3 10km以上 20 60 1012
24 20:30 北西 3 10km以上 19 78 1012
24 20:00 北北西 2 10km以上 20 83 1011
24 19:30 4 10km以上 20 83 1011
24 19:00 4 10km以上 20 88 1010
24 18:30 北北東 4 10km以上 23 47 1010
24 17:30 西北西 4 10km以上 25 41 1009
24 17:00 西 6 10km以上 26 39 1009
24 16:30 西 7 10km以上 27 37 1008
24 16:00 西南西 7 10km以上 27 39 1008
24 15:30 西 6 10km以上 27 39 1008
24 15:00 西 8 10km以上 27 34 1008
24 14:30 西北西 7 10km以上 27 37 1008
24 14:00 西北西 8 10km以上 28 40 1008
24 13:30 西北西 7 10km以上 26 45 1009
24 13:00 西南西 7 10km以上 27 39 1009
24 12:30 西 8 10km以上 27 39 1010
24 12:00 西 6 10km以上 27 45 1010
24 11:30 西 6 10km以上 26 48 1010
24 11:00 西南西 6 10km以上 26 48 1011
24 10:30 西南西 4 10km以上 25 54 1011
24 10:00 西北西 5 10km以上 24 57 1012
24 09:30 西南西 5 10km以上 23 61 1012
24 09:00 西南西 5 10km以上 23 65 1012
24 08:30 西南西 5 10km以上 22 65 1012
24 08:00 西南西 5 10km以上 21 69 1012
24 07:30 西 5 10km以上 20 73 1012
24 07:00 西 3 10km以上 19 83 1012
24 06:30 西 3 10km以上 17 88 1012
YBBN 252000Z 00000KT 9999 MIFG FEW020 15/14 Q1017 RF00.0/000.0
YBBN 251930Z 23005KT 9999 MIFG FEW020 14/13 Q1016 RF00/0/000/0
YBBN 251900Z 20004KT 9999 FEW025 15/13 Q1016
YBBN 251830Z 18005KT 9999 FEW025 16/14 Q1016
YBBN 251800Z 21005KT 9999 FEW025 16/15 Q1016
YBBN 251730Z 21006KT 9999 FEW025 16/15 Q1016
YBBN 251700Z 21005KT 9999 FEW030 16/15 Q1016
YBBN 251630Z 21005KT 9999 FEW031 15/14 Q1016
YBBN 251600Z 25003KT 9999 FEW031 16/14 Q1016
YBBN 251530Z 25004KT 9999 FEW039 16/15 Q1016
YBBN 251500Z 23003KT 9999 SCT035 16/15 Q1016
YBBN 251430Z 00000KT 9999 FEW035 16/15 Q1016
YBBN 251400Z 25004KT 9999 FEW030 17/15 Q1017
YBBN 251330Z 26003KT CAVOK 17/16 Q1017
YBBN 251300Z 04001KT CAVOK 17/15 Q1017
YBBN 251230Z 00000KT CAVOK 18/16 Q1017
YBBN 251200Z 06003KT CAVOK 18/16 Q1017
YBBN 251130Z 06003KT CAVOK 18/16 Q1017
YBBN 251100Z 06003KT CAVOK 19/16 Q1017
YBBN 251030Z 05005KT CAVOK 18/16 Q1016
YBBN 251000Z AUTO 06005KT 9999 // NCD 19/15 Q1016
YBBN 250930Z AUTO 06005KT 9999 // NCD 19/15 Q1016
YBBN 250900Z AUTO 06006KT 9999 // NCD 20/16 Q1015
YBBN 250830Z AUTO 06007KT 9999 // NCD 20/15 Q1015
YBBN 250800Z 07007KT CAVOK 21/14 Q1014
YBBN 250730Z 07007KT CAVOK 21/14 Q1014
YBBN 250700Z 07008KT CAVOK 22/14 Q1014
YBBN 250630Z 07009KT CAVOK 22/14 Q1014
YBBN 250600Z 08008KT CAVOK 23/13 Q1013
YBBN 250530Z 08010KT CAVOK 23/13 Q1013
YBBN 250500Z 07012KT CAVOK 23/14 Q1013
YBBN 250430Z 06013KT CAVOK 24/16 Q1013
YBBN 250400Z 05013KT CAVOK 24/13 Q1013
YBBN 250330Z 05011KT CAVOK 24/11 Q1014
YBBN 250300Z 05010KT CAVOK 24/11 Q1014
YBBN 250230Z 04011KT CAVOK 24/11 Q1014
YBBN 250200Z 04008KT CAVOK 24/10 Q1015
YBBN 250130Z 36011KT CAVOK 24/09 Q1015
YBBN 250100Z 19007KT 150V230 CAVOK 24/09 Q1015
YBBN 250030Z 21005KT CAVOK 24/08 Q1016
YBBN 250000Z 22008KT CAVOK 24/10 Q1016
YBBN 242330Z 22010KT CAVOK 23/10 Q1016
YBBN 242300Z 22010KT CAVOK 22/10 Q1016
YBBN 242230Z 22009KT CAVOK 22/10 Q1016
YBBN 242200Z 23010KT CAVOK 21/10 Q1015
YBBN 242130Z 22007KT CAVOK 19/11 Q1015
YBBN 242100Z 21005KT CAVOK 18/12 Q1015
YBBN 242030Z 24005KT CAVOK 15/12 Q1015
YBBN 242000Z 24005KT CAVOK 14/10 Q1014
YBBN 241930Z 22003KT CAVOK 14/10 Q1014
YBBN 241900Z 22005KT CAVOK 14/10 Q1014
YBBN 241830Z 24008KT CAVOK 14/10 Q1013
YBBN 241800Z 18005KT CAVOK 16/10 Q1013
YBBN 241730Z 20004KT 170V240 CAVOK 16/11 Q1013
YBBN 241700Z 27011KT CAVOK 16/11 Q1013
YBBN 241630Z 24010KT CAVOK 15/11 Q1013
YBBN 241600Z 23008KT CAVOK 14/10 Q1013
YBBN 241530Z 25006KT CAVOK 16/11 Q1013
YBBN 241500Z 26008KT CAVOK 16/11 Q1013
YBBN 241430Z 24009KT CAVOK 18/11 Q1013
YBBN 241400Z 26004KT CAVOK 18/11 Q1013
YBBN 241330Z 26008KT CAVOK 18/11 Q1013
YBBN 241300Z 25008KT CAVOK 18/11 Q1013
YBBN 241230Z 25006KT CAVOK 18/11 Q1013
YBBN 241200Z 25005KT CAVOK 19/11 Q1013
YBBN 241130Z 28006KT CAVOK 20/12 Q1012
YBBN 241100Z 30005KT CAVOK 20/12 Q1012
YBBN 241030Z 31005KT CAVOK 19/15 Q1012
YBBN 241000Z AUTO 34004KT 9999 // NCD 20/17 Q1011
YBBN 240930Z AUTO 36007KT 9999 // NCD 20/17 Q1011
YBBN 240900Z AUTO 01008KT 9999 // NCD 20/18 Q1010
YBBN 240830Z AUTO 02007KT 9999 // NCD 23/11 Q1010
YBBN 240730Z 29008KT CAVOK 25/11 Q1009
YBBN 240700Z 26012KT CAVOK 26/11 Q1009
YBBN 240630Z 26014KT CAVOK 27/11 Q1008
YBBN 240600Z 25014KT CAVOK 27/12 Q1008
YBBN 240530Z 27011KT CAVOK 27/12 Q1008
YBBN 240500Z 27015KT CAVOK 27/10 Q1008
YBBN 240430Z 29014KT CAVOK 27/11 Q1008
YBBN 240400Z 29016KT CAVOK 28/13 Q1008
YBBN 240330Z 29014G24KT CAVOK 26/13 Q1009
YBBN 240300Z 25014KT CAVOK 27/12 Q1009
YBBN 240230Z 26015KT CAVOK 27/12 Q1010
YBBN 240200Z 26011KT CAVOK 27/14 Q1010
YBBN 240130Z 26011KT 9999 FEW040 26/14 Q1010
YBBN 240100Z 24011KT 9999 FEW040 26/14 Q1011
YBBN 240030Z 25008KT 220V280 9999 FEW030 25/15 Q1011
YBBN 240000Z 29009KT 9999 FEW030 24/15 Q1012
YBBN 232330Z 25009KT 9999 FEW030 23/15 Q1012
YBBN 232300Z 25009KT 210V270 9999 FEW030 23/16 Q1012
YBBN 232230Z 25009KT 9999 FEW030 22/15 Q1012
YBBN 232200Z 25009KT 9999 FEW030 21/15 Q1012
YBBN 232130Z 26009KT 9999 FEW030 20/15 Q1012
YBBN 232100Z 26006KT 9999 FEW040 19/16 Q1012
YBBN 232030Z 26006KT 9999 FEW040 17/15 Q1012